Time;durP1;ratioP1;P1;durP2;ratioP2;P2;SDS_P1;SDS_P2;PMS_P1;PMS_P2;Temp;Humidity;BMP_temperature;BMP_pressure;BME280_temperature;BME280_humidity;BME280_pressure;Samples;Min_cycle;Max_cycle;Signal;HPM_P1;HPM_P2
2021/08/11 00:00:31;;;;;;;2.50;1.90;;;;;;;;;;4928540;28;20438;-82
2021/08/11 00:02:57;;;;;;;3.40;2.08;;;;;;;;;;4937770;28;20079;-81
2021/08/11 00:05:23;;;;;;;3.00;1.95;;;;;;;;;;4945905;28;20815;-80
2021/08/11 00:07:50;;;;;;;3.15;1.83;;;;;;;;;;4938053;28;20063;-79
2021/08/11 00:10:16;;;;;;;4.07;2.03;;;;;;;;;;4937808;28;20072;-80
2021/08/11 00:12:43;;;;;;;3.22;1.80;;;;;;;;;;4942113;28;20079;-81
2021/08/11 00:15:10;;;;;;;3.28;1.90;;;;;;;;;;4940229;28;20070;-81
2021/08/11 00:17:36;;;;;;;2.67;1.67;;;;;;;;;;4947589;28;20075;-80
2021/08/11 00:20:04;;;;;;;4.40;1.90;;;;;;;;;;4928644;29;20098;-80
2021/08/11 00:22:30;;;;;;;3.13;2.17;;;;;;;;;;4929214;29;20059;-81
2021/08/11 00:24:57;;;;;;;3.10;1.80;;;;;;;;;;4940085;28;20055;-81
2021/08/11 00:27:23;;;;;;;3.65;2.08;;;;;;;;;;4931371;29;20043;-80
2021/08/11 00:29:50;;;;;;;3.78;2.17;;;;;;;;;;4928823;28;20035;-77
2021/08/11 00:32:16;;;;;;;3.47;2.20;;;;;;;;;;4930630;29;20570;-81
2021/08/11 00:34:43;;;;;;;3.50;1.88;;;;;;;;;;4943295;28;20082;-81
2021/08/11 00:37:09;;;;;;;3.95;1.80;;;;;;;;;;4923684;29;20653;-80
2021/08/11 00:39:36;;;;;;;2.95;1.80;;;;;;;;;;4922308;29;20043;-80
2021/08/11 00:42:02;;;;;;;2.80;1.80;;;;;;;;;;4927667;29;20042;-80
2021/08/11 00:44:29;;;;;;;3.30;1.90;;;;;;;;;;4918916;29;20031;-81
2021/08/11 00:46:55;;;;;;;3.05;1.67;;;;;;;;;;4920456;29;20051;-80
2021/08/11 00:49:22;;;;;;;5.40;2.15;;;;;;;;;;4921723;29;20031;-81
2021/08/11 00:51:48;;;;;;;3.45;1.95;;;;;;;;;;4924967;29;20039;-81
2021/08/11 00:54:16;;;;;;;3.15;1.83;;;;;;;;;;4937263;28;20036;-81
2021/08/11 00:56:44;;;;;;;3.15;1.85;;;;;;;;;;4946833;28;20562;-81
2021/08/11 00:59:12;;;;;;;3.00;1.67;;;;;;;;;;4911097;29;20137;-81
2021/08/11 01:01:39;;;;;;;3.67;1.58;;;;;;;;;;4942540;28;20059;-82
2021/08/11 01:04:08;;;;;;;2.60;1.73;;;;;;;;;;4926798;29;20035;-81
2021/08/11 01:06:36;;;;;;;4.18;1.80;;;;;;;;;;4940857;29;20328;-79
2021/08/11 01:09:03;;;;;;;8.63;2.03;;;;;;;;;;4923206;29;20059;-79
2021/08/11 01:11:30;;;;;;;3.58;2.03;;;;;;;;;;4925618;29;20130;-79
2021/08/11 01:13:57;;;;;;;5.10;2.00;;;;;;;;;;4934565;28;20130;-80
2021/08/11 01:16:24;;;;;;;3.35;1.90;;;;;;;;;;4943734;28;20074;-80
2021/08/11 01:18:51;;;;;;;2.97;1.80;;;;;;;;;;4937789;28;20067;-79
2021/08/11 01:21:32;;;;;;;2.88;1.83;;;;;;;;;;4922616;28;20051;-80
2021/08/11 01:24:09;;;;;;;2.20;1.63;;;;;;;;;;4941690;29;20129;-82
2021/08/11 01:26:35;;;;;;;2.83;1.77;;;;;;;;;;4938822;28;20657;-81
2021/08/11 01:29:12;;;;;;;3.95;1.60;;;;;;;;;;4942004;28;20047;-80
2021/08/11 01:31:53;;;;;;;2.85;1.73;;;;;;;;;;4939441;28;20055;-79
2021/08/11 01:34:32;;;;;;;3.38;1.80;;;;;;;;;;4937967;28;20441;-81
2021/08/11 01:37:04;;;;;;;2.88;1.67;;;;;;;;;;4939908;28;20079;-81
2021/08/11 01:39:34;;;;;;;3.38;1.80;;;;;;;;;;4942721;28;20063;-79
2021/08/11 01:42:08;;;;;;;3.27;1.60;;;;;;;;;;4932411;29;20071;-80
2021/08/11 01:44:39;;;;;;;3.60;1.70;;;;;;;;;;4942948;29;20161;-79
2021/08/11 01:47:07;;;;;;;2.80;1.63;;;;;;;;;;4939369;28;20118;-79
2021/08/11 01:49:34;;;;;;;2.42;1.65;;;;;;;;;;4936368;28;20100;-79
2021/08/11 01:52:01;;;;;;;2.97;1.58;;;;;;;;;;4925809;29;20067;-79
2021/08/11 01:54:28;;;;;;;5.30;1.70;;;;;;;;;;4944166;28;20752;-79
2021/08/11 01:56:57;;;;;;;2.63;1.70;;;;;;;;;;4940253;29;20082;-80
2021/08/11 01:59:24;;;;;;;3.75;1.70;;;;;;;;;;4930939;29;20032;-81
2021/08/11 02:01:50;;;;;;;3.50;1.80;;;;;;;;;;4913443;29;20040;-80
2021/08/11 02:04:17;;;;;;;3.63;1.75;;;;;;;;;;4936303;29;20055;-81
2021/08/11 02:06:44;;;;;;;2.80;1.70;;;;;;;;;;4937248;28;20178;-82
2021/08/11 02:09:12;;;;;;;2.80;1.80;;;;;;;;;;4942551;28;20067;-82
2021/08/11 02:11:41;;;;;;;2.80;1.80;;;;;;;;;;4941603;29;21285;-82
2021/08/11 02:14:08;;;;;;;3.13;1.65;;;;;;;;;;4930688;29;20122;-79
2021/08/11 02:16:35;;;;;;;2.33;1.55;;;;;;;;;;4948368;28;20068;-80
2021/08/11 02:19:01;;;;;;;8.32;2.20;;;;;;;;;;4944484;28;20113;-81
2021/08/11 02:21:28;;;;;;;2.60;1.50;;;;;;;;;;4946337;28;20062;-81
2021/08/11 02:23:54;;;;;;;2.47;1.50;;;;;;;;;;4931547;29;20070;-80
2021/08/11 02:26:25;;;;;;;2.90;1.77;;;;;;;;;;4928740;29;20047;-81
2021/08/11 02:29:01;;;;;;;2.47;1.65;;;;;;;;;;4943402;28;20121;-80
2021/08/11 02:31:35;;;;;;;3.13;1.48;;;;;;;;;;4942896;28;20125;-80
2021/08/11 02:34:05;;;;;;;3.05;1.83;;;;;;;;;;4938593;29;20059;-81
2021/08/11 02:36:34;;;;;;;2.85;1.80;;;;;;;;;;4944825;28;20043;-82
2021/08/11 02:39:12;;;;;;;2.75;1.70;;;;;;;;;;4949626;28;20074;-81
2021/08/11 02:41:40;;;;;;;3.20;1.80;;;;;;;;;;4944391;28;20146;-80
2021/08/11 02:44:08;;;;;;;2.50;1.70;;;;;;;;;;4944798;28;20445;-80
2021/08/11 02:46:39;;;;;;;3.20;1.70;;;;;;;;;;4949198;28;20835;-81
2021/08/11 02:49:09;;;;;;;4.60;1.50;;;;;;;;;;4933881;29;20070;-80
2021/08/11 02:51:36;;;;;;;3.03;1.80;;;;;;;;;;4943464;28;20102;-79
2021/08/11 02:54:05;;;;;;;2.90;1.83;;;;;;;;;;4934762;28;20036;-79
2021/08/11 02:56:32;;;;;;;2.70;1.65;;;;;;;;;;4940242;29;20071;-79
2021/08/11 02:58:59;;;;;;;3.00;1.80;;;;;;;;;;4940075;28;20051;-79
2021/08/11 03:01:29;;;;;;;2.88;1.70;;;;;;;;;;4940446;28;20071;-80
2021/08/11 03:03:56;;;;;;;3.25;1.67;;;;;;;;;;4934321;29;20074;-81
2021/08/11 03:06:23;;;;;;;1.95;1.40;;;;;;;;;;4937810;28;20071;-80
2021/08/11 03:08:50;;;;;;;2.72;1.63;;;;;;;;;;4945791;28;20043;-81
2021/08/11 03:11:17;;;;;;;2.92;1.70;;;;;;;;;;4938627;28;21241;-81
2021/08/11 03:13:44;;;;;;;3.08;1.95;;;;;;;;;;4941758;28;20594;-80
2021/08/11 03:16:11;;;;;;;2.85;1.60;;;;;;;;;;4937577;29;20063;-81
2021/08/11 03:18:37;;;;;;;2.50;1.70;;;;;;;;;;4945978;28;20054;-81
2021/08/11 03:21:04;;;;;;;2.90;1.60;;;;;;;;;;4943998;29;20073;-79
2021/08/11 03:23:30;;;;;;;3.05;1.95;;;;;;;;;;4943071;28;20121;-79
2021/08/11 03:25:57;;;;;;;2.60;1.38;;;;;;;;;;4940053;28;20133;-81
2021/08/11 03:28:24;;;;;;;3.08;1.70;;;;;;;;;;4940411;29;20114;-79
2021/08/11 03:30:50;;;;;;;3.25;1.70;;;;;;;;;;4940801;28;20051;-82
2021/08/11 03:33:17;;;;;;;2.67;1.58;;;;;;;;;;4946476;28;20619;-80
2021/08/11 03:35:43;;;;;;;2.45;1.60;;;;;;;;;;4943480;29;20122;-78
2021/08/11 03:38:10;;;;;;;2.88;1.80;;;;;;;;;;4923846;28;20043;-78
2021/08/11 03:40:36;;;;;;;2.28;1.40;;;;;;;;;;4938973;28;20070;-78
2021/08/11 03:43:03;;;;;;;2.38;1.55;;;;;;;;;;4941215;29;20071;-78
2021/08/11 03:45:30;;;;;;;2.40;1.50;;;;;;;;;;4943452;28;20055;-79
2021/08/11 03:47:56;;;;;;;3.25;1.65;;;;;;;;;;4938229;29;20062;-78
2021/08/11 03:50:25;;;;;;;3.08;1.50;;;;;;;;;;4945943;28;20074;-78
2021/08/11 03:52:52;;;;;;;5.78;1.90;;;;;;;;;;4944566;28;20055;-77
2021/08/11 03:55:18;;;;;;;2.92;1.60;;;;;;;;;;4951781;29;20039;-77
2021/08/11 03:57:45;;;;;;;3.35;1.60;;;;;;;;;;4940896;29;20043;-78
2021/08/11 04:00:12;;;;;;;2.47;1.55;;;;;;;;;;4942140;28;20512;-78
2021/08/11 04:02:39;;;;;;;2.90;1.90;;;;;;;;;;4947663;28;20051;-78
2021/08/11 04:05:06;;;;;;;3.38;1.70;;;;;;;;;;4927782;29;20119;-78
2021/08/11 04:07:35;;;;;;;3.58;1.67;;;;;;;;;;4945207;28;20031;-78
2021/08/11 04:10:01;;;;;;;3.17;1.90;;;;;;;;;;4943146;28;20089;-78
2021/08/11 04:12:28;;;;;;;2.90;1.45;;;;;;;;;;4931381;29;20059;-78
2021/08/11 04:14:54;;;;;;;3.35;1.52;;;;;;;;;;4940867;28;20162;-78
2021/08/11 04:17:21;;;;;;;4.38;1.77;;;;;;;;;;4931262;29;20509;-78
2021/08/11 04:19:47;;;;;;;2.72;1.67;;;;;;;;;;4939016;28;20070;-78
2021/08/11 04:22:13;;;;;;;3.60;1.75;;;;;;;;;;4928742;29;20066;-78
2021/08/11 04:24:40;;;;;;;3.00;1.67;;;;;;;;;;4935110;28;20751;-79
2021/08/11 04:27:09;;;;;;;3.17;1.80;;;;;;;;;;4934566;28;20079;-78
2021/08/11 04:29:36;;;;;;;3.92;1.67;;;;;;;;;;4931423;28;20088;-78
2021/08/11 04:32:03;;;;;;;2.95;1.70;;;;;;;;;;4939199;28;20059;-78
2021/08/11 04:34:29;;;;;;;2.63;1.60;;;;;;;;;;4940279;28;20055;-77
2021/08/11 04:36:56;;;;;;;3.00;1.70;;;;;;;;;;4929553;29;20551;-77
2021/08/11 04:39:23;;;;;;;2.08;1.73;;;;;;;;;;4942286;29;20444;-76
2021/08/11 04:41:50;;;;;;;3.08;1.75;;;;;;;;;;4943097;28;20063;-78
2021/08/11 04:44:16;;;;;;;4.90;2.03;;;;;;;;;;4943047;28;20074;-77
2021/08/11 04:46:42;;;;;;;4.82;2.10;;;;;;;;;;4940885;29;20060;-77
2021/08/11 04:49:09;;;;;;;9.25;2.35;;;;;;;;;;4933779;28;20444;-79
2021/08/11 04:51:36;;;;;;;6.82;2.45;;;;;;;;;;4927275;28;22402;-78
2021/08/11 04:54:02;;;;;;;3.80;2.45;;;;;;;;;;4936961;28;20066;-77
2021/08/11 04:56:29;;;;;;;5.82;2.55;;;;;;;;;;4944968;28;20070;-79
2021/08/11 04:58:55;;;;;;;4.75;2.58;;;;;;;;;;4938976;28;20067;-78
2021/08/11 05:01:21;;;;;;;7.55;2.58;;;;;;;;;;4942433;28;20763;-78
2021/08/11 05:03:48;;;;;;;5.57;2.35;;;;;;;;;;4948846;28;20118;-78
2021/08/11 05:06:14;;;;;;;7.03;2.63;;;;;;;;;;4942864;28;20088;-82
2021/08/11 05:08:41;;;;;;;6.65;2.83;;;;;;;;;;4942742;29;20039;-83
2021/08/11 05:11:07;;;;;;;5.13;2.30;;;;;;;;;;4939488;28;20090;-83
2021/08/11 05:13:34;;;;;;;6.03;3.03;;;;;;;;;;4941031;28;20149;-83
2021/08/11 05:16:01;;;;;;;5.32;2.17;;;;;;;;;;4927056;28;20075;-82
2021/08/11 05:18:28;;;;;;;5.88;2.08;;;;;;;;;;4935932;29;20758;-82
2021/08/11 05:20:55;;;;;;;5.75;2.33;;;;;;;;;;4939194;28;20484;-82
2021/08/11 05:23:22;;;;;;;7.38;2.40;;;;;;;;;;4926084;29;20066;-82
2021/08/11 05:25:49;;;;;;;7.47;2.17;;;;;;;;;;4944490;28;20119;-82
2021/08/11 05:28:15;;;;;;;4.97;2.22;;;;;;;;;;4948984;28;20126;-82
2021/08/11 05:30:41;;;;;;;5.85;2.40;;;;;;;;;;4944446;28;20062;-82
2021/08/11 05:33:08;;;;;;;4.80;2.15;;;;;;;;;;4936048;28;20059;-83
2021/08/11 05:35:34;;;;;;;5.88;2.08;;;;;;;;;;4944710;29;20157;-83
2021/08/11 05:38:01;;;;;;;3.92;2.30;;;;;;;;;;4940859;28;20099;-84
2021/08/11 05:40:27;;;;;;;5.72;1.80;;;;;;;;;;4937993;29;20070;-82
2021/08/11 05:42:54;;;;;;;4.22;1.77;;;;;;;;;;4940579;28;20051;-82
2021/08/11 05:45:20;;;;;;;4.68;2.20;;;;;;;;;;4918194;29;20113;-83
2021/08/11 05:47:46;;;;;;;4.20;2.10;;;;;;;;;;4921634;29;20075;-83
2021/08/11 05:50:13;;;;;;;4.38;2.17;;;;;;;;;;4943027;28;20453;-83
2021/08/11 05:52:40;;;;;;;4.13;1.65;;;;;;;;;;4925116;29;20074;-83
2021/08/11 05:55:06;;;;;;;3.30;2.03;;;;;;;;;;4947091;29;20439;-83
2021/08/11 05:57:36;;;;;;;3.22;1.77;;;;;;;;;;4937446;29;20063;-83
2021/08/11 06:00:03;;;;;;;5.18;2.08;;;;;;;;;;4943727;28;20203;-82
2021/08/11 06:02:30;;;;;;;3.65;1.83;;;;;;;;;;4943892;28;20024;-83
2021/08/11 06:04:56;;;;;;;4.03;1.80;;;;;;;;;;4939480;28;20063;-83
2021/08/11 06:07:22;;;;;;;4.22;1.75;;;;;;;;;;4941389;29;20554;-83
2021/08/11 06:09:49;;;;;;;3.60;1.90;;;;;;;;;;4949294;28;20066;-83
2021/08/11 06:12:15;;;;;;;3.88;1.48;;;;;;;;;;4931280;28;20082;-83
2021/08/11 06:14:42;;;;;;;5.80;2.40;;;;;;;;;;4947308;28;20055;-83
2021/08/11 06:17:08;;;;;;;4.63;1.55;;;;;;;;;;4928669;29;20047;-83
2021/08/11 06:19:34;;;;;;;3.35;1.80;;;;;;;;;;4946406;28;20078;-83
2021/08/11 06:22:01;;;;;;;5.07;1.88;;;;;;;;;;4945342;28;20460;-83
2021/08/11 06:24:27;;;;;;;3.22;1.73;;;;;;;;;;4947965;28;20130;-82
2021/08/11 06:26:54;;;;;;;4.25;1.70;;;;;;;;;;4949408;28;20161;-82
2021/08/11 06:29:20;;;;;;;2.70;1.50;;;;;;;;;;4936599;29;20185;-82
2021/08/11 06:31:47;;;;;;;4.28;1.98;;;;;;;;;;4936887;29;20055;-81
2021/08/11 06:34:13;;;;;;;4.60;1.65;;;;;;;;;;4936042;29;20031;-82
2021/08/11 06:36:39;;;;;;;3.92;1.98;;;;;;;;;;4947175;29;20036;-82
2021/08/11 06:39:06;;;;;;;4.70;2.10;;;;;;;;;;4933386;29;20567;-83
2021/08/11 06:41:32;;;;;;;4.53;1.90;;;;;;;;;;4956199;28;20090;-84
2021/08/11 06:43:59;;;;;;;3.85;2.05;;;;;;;;;;4952094;28;20379;-83
2021/08/11 06:46:25;;;;;;;3.53;1.80;;;;;;;;;;4947071;28;20066;-83
2021/08/11 06:48:54;;;;;;;3.65;1.75;;;;;;;;;;4937028;28;20573;-81
2021/08/11 06:51:20;;;;;;;3.47;1.70;;;;;;;;;;4946658;28;20510;-84
2021/08/11 06:53:46;;;;;;;4.18;1.42;;;;;;;;;;4945737;28;20189;-84
2021/08/11 06:56:13;;;;;;;2.60;1.77;;;;;;;;;;4944456;28;20090;-83
2021/08/11 06:58:39;;;;;;;4.22;1.70;;;;;;;;;;4950139;28;20054;-81
2021/08/11 07:01:06;;;;;;;3.90;1.60;;;;;;;;;;4945357;28;20127;-83
2021/08/11 07:03:32;;;;;;;3.30;1.80;;;;;;;;;;4950210;28;20113;-83
2021/08/11 07:05:59;;;;;;;3.05;1.90;;;;;;;;;;4925666;29;20134;-83
2021/08/11 07:08:25;;;;;;;4.85;1.77;;;;;;;;;;4941370;28;20055;-83
2021/08/11 07:10:52;;;;;;;3.50;1.70;;;;;;;;;;4942418;28;20175;-80
2021/08/11 07:13:20;;;;;;;2.88;1.60;;;;;;;;;;4947673;28;20447;-83
2021/08/11 07:15:46;;;;;;;4.97;1.80;;;;;;;;;;4949123;29;20043;-83
2021/08/11 07:18:16;;;;;;;3.45;1.95;;;;;;;;;;4948120;28;20055;-83
2021/08/11 07:20:42;;;;;;;2.88;1.52;;;;;;;;;;4956399;28;20094;-83
2021/08/11 07:23:09;;;;;;;3.50;1.80;;;;;;;;;;4946406;28;20421;-84
2021/08/11 07:25:35;;;;;;;3.35;1.92;;;;;;;;;;4950648;28;20028;-83
2021/08/11 07:28:02;;;;;;;4.57;1.83;;;;;;;;;;4943187;29;20565;-83
2021/08/11 07:30:28;;;;;;;3.47;2.08;;;;;;;;;;4964005;28;20068;-83
2021/08/11 07:32:55;;;;;;;4.65;1.60;;;;;;;;;;4934527;29;20035;-82
2021/08/11 07:35:21;;;;;;;4.07;1.88;;;;;;;;;;4935914;29;20043;-85
2021/08/11 07:37:52;;;;;;;3.38;1.52;;;;;;;;;;4941635;29;20110;-83
2021/08/11 07:40:19;;;;;;;5.03;1.73;;;;;;;;;;4955898;28;20502;-84
2021/08/11 07:42:46;;;;;;;4.50;1.50;;;;;;;;;;4941752;29;20480;-83
2021/08/11 07:45:13;;;;;;;3.30;1.63;;;;;;;;;;4952575;28;20429;-83
2021/08/11 07:47:40;;;;;;;3.03;1.80;;;;;;;;;;4948726;28;20065;-83
2021/08/11 07:50:07;;;;;;;4.78;2.13;;;;;;;;;;4929008;29;20102;-84
2021/08/11 07:52:33;;;;;;;2.83;1.77;;;;;;;;;;4942761;28;20056;-83
2021/08/11 07:55:00;;;;;;;3.70;1.70;;;;;;;;;;4941191;29;20103;-84
2021/08/11 07:57:26;;;;;;;2.92;1.83;;;;;;;;;;4946359;29;20075;-84
2021/08/11 07:59:52;;;;;;;3.95;1.80;;;;;;;;;;4920447;29;20067;-81
2021/08/11 08:02:19;;;;;;;4.15;1.60;;;;;;;;;;4943716;29;20460;-83
2021/08/11 08:04:45;;;;;;;3.78;1.90;;;;;;;;;;4946365;28;20087;-83
2021/08/11 08:07:11;;;;;;;3.88;1.80;;;;;;;;;;4948748;28;21400;-83
2021/08/11 08:09:38;;;;;;;4.00;1.45;;;;;;;;;;4950117;28;20349;-83
2021/08/11 08:12:05;;;;;;;3.10;1.63;;;;;;;;;;4948493;28;20042;-82
2021/08/11 08:14:31;;;;;;;3.75;1.65;;;;;;;;;;4950327;28;20396;-81
2021/08/11 08:16:57;;;;;;;3.50;1.85;;;;;;;;;;4947163;29;20074;-81
2021/08/11 08:19:24;;;;;;;4.72;2.08;;;;;;;;;;4949943;28;20043;-82
2021/08/11 08:21:50;;;;;;;3.72;1.80;;;;;;;;;;4939848;29;20076;-82
2021/08/11 08:24:17;;;;;;;3.38;1.70;;;;;;;;;;4940410;28;20399;-82
2021/08/11 08:26:44;;;;;;;3.95;1.85;;;;;;;;;;4936414;28;20032;-82
2021/08/11 08:29:10;;;;;;;3.30;1.90;;;;;;;;;;4941369;29;20443;-83
2021/08/11 08:31:37;;;;;;;3.13;1.80;;;;;;;;;;4939191;28;20040;-83
2021/08/11 08:34:03;;;;;;;3.10;2.00;;;;;;;;;;4950423;28;20027;-83
2021/08/11 08:36:30;;;;;;;3.53;1.85;;;;;;;;;;4952028;28;20067;-82
2021/08/11 08:38:57;;;;;;;3.38;1.85;;;;;;;;;;4949817;28;20538;-82
2021/08/11 08:41:23;;;;;;;2.45;1.88;;;;;;;;;;4951624;28;20061;-83
2021/08/11 08:43:50;;;;;;;2.63;1.90;;;;;;;;;;4952634;28;20039;-83
2021/08/11 08:46:17;;;;;;;3.08;1.90;;;;;;;;;;4939297;28;20036;-82
2021/08/11 08:48:43;;;;;;;2.75;1.98;;;;;;;;;;4946133;28;20039;-82
2021/08/11 08:51:11;;;;;;;3.67;1.88;;;;;;;;;;4953294;28;20027;-82
2021/08/11 08:53:37;;;;;;;3.92;1.80;;;;;;;;;;4946950;28;20031;-82
2021/08/11 08:56:04;;;;;;;3.03;1.80;;;;;;;;;;4941394;28;20035;-83
2021/08/11 08:58:30;;;;;;;4.03;2.10;;;;;;;;;;4953941;28;20102;-82
2021/08/11 09:00:57;;;;;;;4.30;1.67;;;;;;;;;;4945881;28;20530;-82
2021/08/11 09:03:23;;;;;;;3.17;1.85;;;;;;;;;;4936807;28;20063;-82
2021/08/11 09:05:49;;;;;;;4.30;2.40;;;;;;;;;;4942681;28;20527;-82
2021/08/11 09:08:16;;;;;;;2.97;1.77;;;;;;;;;;4944643;28;20071;-81
2021/08/11 09:10:42;;;;;;;2.75;1.60;;;;;;;;;;4942927;28;20055;-81
2021/08/11 09:13:15;;;;;;;4.05;2.00;;;;;;;;;;4939725;28;20035;-81
2021/08/11 09:15:46;;;;;;;6.25;2.05;;;;;;;;;;4936158;28;20034;-82
2021/08/11 09:18:16;;;;;;;3.70;2.30;;;;;;;;;;4940824;29;20138;-82
2021/08/11 09:20:47;;;;;;;4.90;2.08;;;;;;;;;;4949860;28;20199;-82
2021/08/11 09:23:15;;;;;;;4.85;1.92;;;;;;;;;;4941658;28;20089;-82
2021/08/11 09:26:01;;;;;;;3.45;1.90;;;;;;;;;;4942778;28;20058;-82
2021/08/11 09:28:29;;;;;;;2.55;1.80;;;;;;;;;;4930841;28;20180;-82
2021/08/11 09:30:56;;;;;;;3.53;2.00;;;;;;;;;;4948273;28;20031;-82
2021/08/11 09:33:26;;;;;;;3.47;1.88;;;;;;;;;;4928417;28;20092;-83
2021/08/11 09:35:54;;;;;;;4.78;2.17;;;;;;;;;;4950858;28;20193;-82
2021/08/11 09:38:21;;;;;;;3.83;1.98;;;;;;;;;;4934937;29;20086;-81
2021/08/11 09:40:48;;;;;;;4.55;2.40;;;;;;;;;;4941807;28;20044;-82
2021/08/11 09:43:16;;;;;;;3.15;1.83;;;;;;;;;;4947839;28;20070;-82
2021/08/11 09:45:54;;;;;;;4.70;1.95;;;;;;;;;;4948340;29;20071;-82
2021/08/11 09:48:22;;;;;;;3.25;1.90;;;;;;;;;;4934688;29;20091;-82
2021/08/11 09:50:58;;;;;;;3.88;2.13;;;;;;;;;;4934077;29;20106;-82
2021/08/11 09:53:27;;;;;;;3.72;2.10;;;;;;;;;;4932560;29;21390;-82
2021/08/11 09:55:56;;;;;;;3.03;2.03;;;;;;;;;;4920912;29;20071;-81
2021/08/11 09:58:22;;;;;;;2.65;1.90;;;;;;;;;;4950157;28;20062;-82
2021/08/11 10:00:49;;;;;;;3.90;2.00;;;;;;;;;;4952963;28;20566;-83
2021/08/11 10:03:15;;;;;;;2.90;1.90;;;;;;;;;;4939867;29;20378;-82
2021/08/11 10:05:42;;;;;;;2.58;2.00;;;;;;;;;;4949665;28;20561;-83
2021/08/11 10:08:08;;;;;;;3.05;2.30;;;;;;;;;;4949117;28;20136;-82
2021/08/11 10:10:46;;;;;;;4.80;2.17;;;;;;;;;;4922082;29;20499;-81
2021/08/11 10:13:14;;;;;;;3.58;2.00;;;;;;;;;;4950503;28;20929;-81
2021/08/11 10:15:40;;;;;;;3.95;2.05;;;;;;;;;;4949620;28;20087;-82
2021/08/11 10:18:08;;;;;;;3.75;1.77;;;;;;;;;;4924634;29;20071;-82
2021/08/11 10:20:34;;;;;;;3.05;2.00;;;;;;;;;;4947133;28;20059;-82
2021/08/11 10:23:01;;;;;;;4.28;2.10;;;;;;;;;;4935813;29;20515;-81
2021/08/11 10:25:27;;;;;;;3.00;2.15;;;;;;;;;;4946894;28;20115;-82
2021/08/11 10:27:54;;;;;;;3.95;2.20;;;;;;;;;;4936193;28;20082;-81
2021/08/11 10:30:20;;;;;;;3.88;2.30;;;;;;;;;;4947648;28;20063;-82
2021/08/11 10:32:46;;;;;;;3.30;2.40;;;;;;;;;;4944858;28;20059;-82
2021/08/11 10:35:13;;;;;;;3.58;2.00;;;;;;;;;;4932370;29;20044;-82
2021/08/11 10:37:40;;;;;;;5.13;2.33;;;;;;;;;;4938821;29;20149;-82
2021/08/11 10:40:07;;;;;;;4.15;2.10;;;;;;;;;;4944376;28;20067;-82
2021/08/11 10:42:33;;;;;;;5.40;2.30;;;;;;;;;;4952190;28;20063;-83
2021/08/11 10:45:00;;;;;;;3.03;2.28;;;;;;;;;;4926405;29;20570;-81
2021/08/11 10:47:30;;;;;;;5.00;2.00;;;;;;;;;;4946395;28;20063;-82
2021/08/11 10:49:58;;;;;;;3.03;2.00;;;;;;;;;;4938461;28;20039;-80
2021/08/11 10:52:25;;;;;;;3.90;2.40;;;;;;;;;;4948340;28;20098;-82
2021/08/11 10:54:53;;;;;;;2.75;1.80;;;;;;;;;;4952643;28;20043;-83
2021/08/11 10:57:35;;;;;;;3.42;1.80;;;;;;;;;;4960221;28;21725;-82
2021/08/11 11:00:01;;;;;;;4.15;2.58;;;;;;;;;;4944103;28;20040;-81
2021/08/11 11:02:49;;;;;;;3.85;2.00;;;;;;;;;;4940687;28;20047;-78
2021/08/11 11:05:15;;;;;;;4.15;2.03;;;;;;;;;;4926477;29;20048;-80
2021/08/11 11:07:41;;;;;;;3.25;2.00;;;;;;;;;;4938381;28;20047;-80
2021/08/11 11:10:24;;;;;;;4.10;2.45;;;;;;;;;;4920682;29;20034;-81
2021/08/11 11:12:52;;;;;;;3.38;2.08;;;;;;;;;;4952971;28;20377;-81
2021/08/11 11:15:38;;;;;;;3.33;1.90;;;;;;;;;;4952818;28;20063;-82
2021/08/11 11:18:21;;;;;;;3.83;1.83;;;;;;;;;;4937234;28;20075;-82
2021/08/11 11:20:49;;;;;;;4.90;1.80;;;;;;;;;;4941746;28;20040;-82
2021/08/11 11:23:30;;;;;;;5.22;1.95;;;;;;;;;;4916107;29;20122;-81
2021/08/11 11:25:59;;;;;;;3.58;1.80;;;;;;;;;;4927480;28;20048;-81
2021/08/11 11:28:44;;;;;;;5.10;1.83;;;;;;;;;;4943241;28;20127;-82
2021/08/11 11:31:36;;;;;;;4.40;1.50;;;;;;;;;;4935122;28;20040;-81
2021/08/11 11:34:21;;;;;;;5.65;1.70;;;;;;;;;;4916379;29;20125;-82
2021/08/11 11:36:57;;;;;;;4.90;2.40;;;;;;;;;;4941091;28;20083;-81
2021/08/11 11:39:24;;;;;;;4.25;2.13;;;;;;;;;;4934671;28;21249;-84
2021/08/11 11:42:11;;;;;;;3.58;2.00;;;;;;;;;;4946364;28;20790;-85
2021/08/11 11:44:48;;;;;;;3.65;1.92;;;;;;;;;;4928020;29;20070;-84
2021/08/11 11:47:15;;;;;;;3.78;1.88;;;;;;;;;;4928586;29;20118;-83
2021/08/11 11:49:42;;;;;;;5.03;1.90;;;;;;;;;;4928408;29;20063;-84
2021/08/11 11:52:17;;;;;;;4.20;1.92;;;;;;;;;;4937822;28;20070;-85
2021/08/11 11:54:45;;;;;;;4.22;1.90;;;;;;;;;;4943964;28;20480;-86
2021/08/11 11:57:15;;;;;;;2.88;1.70;;;;;;;;;;4932811;29;20071;-86
2021/08/11 11:59:49;;;;;;;3.05;1.80;;;;;;;;;;4929609;28;20035;-86
2021/08/11 12:02:22;;;;;;;4.25;2.30;;;;;;;;;;4944210;28;20149;-86
2021/08/11 12:05:02;;;;;;;4.00;2.17;;;;;;;;;;4913300;29;20043;-86
2021/08/11 12:07:29;;;;;;;3.97;2.20;;;;;;;;;;4933043;29;20063;-86
2021/08/11 12:09:56;;;;;;;4.43;2.00;;;;;;;;;;4936895;28;20075;-86
2021/08/11 12:12:22;;;;;;;5.88;2.00;;;;;;;;;;4942036;28;20732;-86
2021/08/11 12:14:49;;;;;;;6.18;2.40;;;;;;;;;;4944736;28;20090;-85
2021/08/11 12:17:31;;;;;;;4.47;2.22;;;;;;;;;;4923251;28;20067;-84
2021/08/11 12:19:58;;;;;;;4.20;2.40;;;;;;;;;;4941117;28;20126;-83
2021/08/11 12:22:34;;;;;;;4.00;2.20;;;;;;;;;;4929123;29;20504;-83
2021/08/11 12:25:01;;;;;;;5.18;2.30;;;;;;;;;;4936769;28;20110;-83
2021/08/11 12:27:27;;;;;;;4.50;2.20;;;;;;;;;;4944038;28;20075;-83
2021/08/11 12:30:14;;;;;;;4.45;2.10;;;;;;;;;;4933968;28;20067;-81
2021/08/11 12:32:40;;;;;;;2.67;1.95;;;;;;;;;;4935271;28;20456;-83
2021/08/11 12:35:07;;;;;;;4.35;1.88;;;;;;;;;;4922694;29;20062;-82
2021/08/11 12:37:43;;;;;;;4.53;2.10;;;;;;;;;;4943892;28;20050;-84
2021/08/11 12:40:09;;;;;;;4.47;2.08;;;;;;;;;;4924757;29;20055;-84
2021/08/11 12:42:52;;;;;;;2.35;1.92;;;;;;;;;;4934517;28;20059;-83
2021/08/11 12:45:18;;;;;;;5.90;1.98;;;;;;;;;;4939021;28;20126;-84
2021/08/11 12:47:45;;;;;;;4.45;2.10;;;;;;;;;;4937127;28;20064;-84
2021/08/11 12:50:18;;;;;;;6.15;2.20;;;;;;;;;;4928098;29;20062;-84
2021/08/11 12:52:54;;;;;;;2.65;1.73;;;;;;;;;;4928222;29;20518;-84
2021/08/11 12:55:31;;;;;;;3.67;1.85;;;;;;;;;;4927326;29;20063;-84
2021/08/11 12:57:58;;;;;;;3.53;1.90;;;;;;;;;;4932560;28;20137;-84
2021/08/11 13:00:39;;;;;;;3.10;1.80;;;;;;;;;;4945741;28;20063;-84
2021/08/11 13:03:13;;;;;;;4.45;2.10;;;;;;;;;;4934561;28;20118;-84
2021/08/11 13:05:49;;;;;;;4.32;1.73;;;;;;;;;;4932273;28;20055;-84
2021/08/11 13:08:16;;;;;;;3.20;1.85;;;;;;;;;;4913889;29;20059;-84
2021/08/11 13:10:56;;;;;;;2.72;1.67;;;;;;;;;;4921054;29;20067;-83
2021/08/11 13:13:27;;;;;;;5.15;2.00;;;;;;;;;;4921346;29;20059;-83
2021/08/11 13:16:27;;;;;;;3.70;1.98;;;;;;;;;;4938042;28;20067;-81
2021/08/11 13:19:17;;;;;;;3.20;1.83;;;;;;;;;;4907948;29;20067;-84
2021/08/11 13:21:43;;;;;;;2.70;2.00;;;;;;;;;;4934446;28;20119;-83
2021/08/11 13:24:10;;;;;;;5.32;2.10;;;;;;;;;;4936131;28;20063;-82
2021/08/11 13:26:36;;;;;;;3.80;2.10;;;;;;;;;;4940349;28;20084;-82
2021/08/11 13:29:02;;;;;;;4.03;1.95;;;;;;;;;;4936468;28;20070;-82
2021/08/11 13:31:29;;;;;;;3.88;2.05;;;;;;;;;;4912717;29;20641;-83
2021/08/11 13:33:56;;;;;;;5.75;2.20;;;;;;;;;;4927250;29;20058;-83
2021/08/11 13:36:23;;;;;;;3.85;1.80;;;;;;;;;;4920634;28;20059;-83
2021/08/11 13:38:49;;;;;;;5.43;1.75;;;;;;;;;;4929169;29;20487;-84
2021/08/11 13:41:15;;;;;;;3.88;2.03;;;;;;;;;;4920676;28;20114;-84
2021/08/11 13:43:42;;;;;;;2.30;1.73;;;;;;;;;;4908725;29;20089;-84
2021/08/11 13:46:08;;;;;;;2.67;1.80;;;;;;;;;;4926137;29;20114;-84
2021/08/11 13:48:35;;;;;;;3.78;2.00;;;;;;;;;;4927944;28;20123;-84
2021/08/11 13:51:01;;;;;;;3.05;1.77;;;;;;;;;;4937720;29;20067;-85
2021/08/11 13:53:28;;;;;;;3.28;1.98;;;;;;;;;;4912423;29;20064;-84
2021/08/11 13:55:54;;;;;;;4.28;2.20;;;;;;;;;;4943067;28;20078;-83
2021/08/11 13:58:20;;;;;;;2.67;1.80;;;;;;;;;;4935814;28;20063;-84
2021/08/11 14:00:47;;;;;;;4.53;1.80;;;;;;;;;;4943972;28;20058;-83
2021/08/11 14:03:13;;;;;;;2.97;2.13;;;;;;;;;;4941262;28;21130;-83
2021/08/11 14:05:41;;;;;;;4.05;1.98;;;;;;;;;;4939883;29;20709;-82
2021/08/11 14:08:07;;;;;;;4.20;2.30;;;;;;;;;;4930535;28;20064;-81
2021/08/11 14:10:34;;;;;;;5.45;2.30;;;;;;;;;;4943725;29;20437;-82
2021/08/11 14:13:00;;;;;;;6.50;3.20;;;;;;;;;;4938905;29;20066;-80
2021/08/11 14:15:26;;;;;;;4.43;2.40;;;;;;;;;;4924719;29;20098;-80
2021/08/11 14:17:53;;;;;;;4.25;2.53;;;;;;;;;;4937690;28;20522;-80
2021/08/11 14:20:19;;;;;;;4.57;2.55;;;;;;;;;;4929196;29;20090;-80
2021/08/11 14:22:45;;;;;;;6.88;3.80;;;;;;;;;;4901498;29;20601;-83
2021/08/11 14:25:13;;;;;;;6.82;4.05;;;;;;;;;;4893105;29;20059;-82
2021/08/11 14:27:40;;;;;;;4.47;3.40;;;;;;;;;;4897953;29;20064;-84
2021/08/11 14:30:06;;;;;;;5.88;3.10;;;;;;;;;;4897999;29;20112;-85
2021/08/11 14:32:33;;;;;;;5.88;2.78;;;;;;;;;;4917760;29;20120;-85
2021/08/11 14:34:59;;;;;;;3.40;2.42;;;;;;;;;;4891072;29;20056;-85
2021/08/11 14:37:26;;;;;;;3.60;2.35;;;;;;;;;;4901709;29;20072;-86
2021/08/11 14:39:52;;;;;;;4.28;2.55;;;;;;;;;;4917322;29;20071;-85
2021/08/11 14:42:18;;;;;;;2.78;2.13;;;;;;;;;;4905982;29;20123;-85
2021/08/11 14:44:47;;;;;;;4.38;2.28;;;;;;;;;;4909098;29;20135;-85
2021/08/11 14:47:14;;;;;;;3.05;2.08;;;;;;;;;;4899754;29;20571;-86
2021/08/11 14:49:40;;;;;;;4.13;2.50;;;;;;;;;;4908423;29;20044;-85